createdAt,value
2023-05-12T00:01:02.934Z,11.08
2023-05-12T00:03:29.916Z,11.08
2023-05-12T00:05:56.807Z,11.07
2023-05-12T00:08:23.606Z,11.06
2023-05-12T00:10:51.889Z,11.06
2023-05-12T00:13:18.910Z,11.05
2023-05-12T00:15:45.723Z,11.06
2023-05-12T00:18:12.692Z,11.08
2023-05-12T00:20:39.601Z,11.12
2023-05-12T00:23:06.412Z,11.16
2023-05-12T00:25:33.875Z,11.19
2023-05-12T00:28:00.687Z,11.19
2023-05-12T00:30:27.871Z,11.18
2023-05-12T00:32:55.191Z,11.17
2023-05-12T00:35:22.124Z,11.14
2023-05-12T00:37:48.885Z,11.10
2023-05-12T00:40:15.828Z,11.06
2023-05-12T00:42:43.659Z,11.02
2023-05-12T00:45:10.897Z,10.98
2023-05-12T00:47:37.739Z,10.94
2023-05-12T00:50:04.938Z,10.89
2023-05-12T00:52:31.842Z,10.85
2023-05-12T00:54:59.381Z,10.80
2023-05-12T00:57:27.957Z,10.75
2023-05-12T00:59:56.011Z,10.69
2023-05-12T01:02:23.178Z,10.65
2023-05-12T01:04:51.589Z,10.60
2023-05-12T01:07:21.036Z,10.56
2023-05-12T01:09:48.338Z,10.51
2023-05-12T01:12:15.511Z,10.41
2023-05-12T01:14:43.045Z,10.33
2023-05-12T01:17:13.317Z,10.25
2023-05-12T01:19:49.396Z,10.16
2023-05-12T01:22:16.968Z,10.07
2023-05-12T01:24:52.897Z,9.98
2023-05-12T01:27:19.824Z,9.90
2023-05-12T01:29:47.193Z,9.84
2023-05-12T01:32:15.899Z,9.79
2023-05-12T01:34:43.247Z,9.76
2023-05-12T01:37:10.694Z,9.72
2023-05-12T01:39:37.833Z,9.67
2023-05-12T01:42:05.665Z,9.65
2023-05-12T01:44:32.657Z,9.63
2023-05-12T01:46:59.490Z,9.63
2023-05-12T01:49:26.844Z,9.62
2023-05-12T01:51:53.604Z,9.61
2023-05-12T01:54:25.687Z,9.62
2023-05-12T01:56:52.473Z,9.61
2023-05-12T01:59:19.303Z,9.63
2023-05-12T02:01:46.256Z,9.67
2023-05-12T02:04:14.392Z,9.71
2023-05-12T02:06:42.469Z,9.71
2023-05-12T02:09:09.216Z,9.73
2023-05-12T02:11:36.819Z,9.75
2023-05-12T02:14:04.040Z,9.73
2023-05-12T02:16:30.989Z,9.69
2023-05-12T02:18:57.868Z,9.64
2023-05-12T02:21:24.739Z,9.58
2023-05-12T02:23:51.628Z,9.52
2023-05-12T02:26:19.595Z,9.48
2023-05-12T02:28:46.448Z,9.44
2023-05-12T02:31:13.249Z,9.41
2023-05-12T02:33:40.080Z,9.41
2023-05-12T02:36:07.316Z,9.45
2023-05-12T02:38:34.166Z,9.49
2023-05-12T02:41:01.722Z,9.53
2023-05-12T02:43:28.678Z,9.56
2023-05-12T02:45:55.510Z,9.58
2023-05-12T02:48:22.400Z,9.59
2023-05-12T02:50:49.194Z,9.61
2023-05-12T02:53:16.016Z,9.63
2023-05-12T02:55:42.959Z,9.63
2023-05-12T02:58:10.442Z,9.62
2023-05-12T03:00:37.177Z,9.61
2023-05-12T03:03:04.220Z,9.59
2023-05-12T03:05:31.339Z,9.60
2023-05-12T03:07:59.088Z,9.60
2023-05-12T03:10:25.911Z,9.58
2023-05-12T03:12:52.968Z,9.57
2023-05-12T03:15:20.293Z,9.56
2023-05-12T03:17:47.224Z,9.54
2023-05-12T03:20:14.379Z,9.53
2023-05-12T03:22:43.237Z,9.53
2023-05-12T03:25:10.883Z,9.52
2023-05-12T03:27:37.792Z,9.52
2023-05-12T03:30:07.984Z,9.53
2023-05-12T03:32:39.207Z,9.57
2023-05-12T03:35:08.468Z,9.61
2023-05-12T03:37:35.381Z,9.68
2023-05-12T03:40:02.303Z,9.75
2023-05-12T03:42:30.316Z,9.80
2023-05-12T03:44:57.063Z,9.86
2023-05-12T03:47:24.057Z,9.94
2023-05-12T03:49:51.129Z,10.00
2023-05-12T03:52:17.921Z,10.11
2023-05-12T03:54:45.100Z,10.17
2023-05-12T03:57:12.697Z,10.25
2023-05-12T03:59:39.473Z,10.31
2023-05-12T04:02:07.850Z,10.35
2023-05-12T04:04:34.780Z,10.40
2023-05-12T04:07:02.091Z,10.48
2023-05-12T04:09:31.441Z,10.57
2023-05-12T04:11:58.954Z,10.70
2023-05-12T04:14:35.206Z,10.84
2023-05-12T04:17:06.282Z,11.03
2023-05-12T04:19:33.510Z,11.17
2023-05-12T04:22:00.356Z,11.34
2023-05-12T04:24:28.013Z,11.53
2023-05-12T04:26:54.827Z,11.71
2023-05-12T04:29:21.708Z,11.89
2023-05-12T04:31:48.732Z,12.10
2023-05-12T04:34:15.633Z,12.30
2023-05-12T04:36:42.399Z,12.46
2023-05-12T04:39:09.706Z,12.58
2023-05-12T04:41:36.874Z,12.67
2023-05-12T04:44:03.746Z,12.76
2023-05-12T04:46:30.988Z,12.87
2023-05-12T04:48:57.862Z,12.97
2023-05-12T04:51:24.871Z,13.07
2023-05-12T04:53:51.790Z,13.17
2023-05-12T04:56:19.213Z,13.28
2023-05-12T04:58:46.471Z,13.42
2023-05-12T05:01:13.800Z,13.58
2023-05-12T05:03:41.254Z,13.71
2023-05-12T05:06:08.506Z,13.78
2023-05-12T05:08:35.452Z,13.82
2023-05-12T05:11:03.300Z,13.88
2023-05-12T05:13:31.379Z,13.95
2023-05-12T05:15:58.291Z,14.02
2023-05-12T05:18:25.724Z,14.08
2023-05-12T05:23:24.602Z,14.21
2023-05-12T05:25:51.617Z,14.28
2023-05-12T05:28:18.405Z,14.34
2023-05-12T05:30:45.325Z,14.40
2023-05-12T05:33:13.364Z,14.46
2023-05-12T05:35:40.350Z,14.53
2023-05-12T05:38:07.154Z,14.63
2023-05-12T05:40:44.990Z,14.71
2023-05-12T05:43:18.801Z,14.81
2023-05-12T05:45:45.638Z,14.89
2023-05-12T05:48:12.737Z,14.98
2023-05-12T05:50:39.619Z,15.06
2023-05-12T05:53:06.790Z,15.15
2023-05-12T05:55:33.767Z,15.24
2023-05-12T05:58:01.141Z,15.33
2023-05-12T06:00:28.054Z,15.41
2023-05-12T06:02:55.730Z,15.49
2023-05-12T06:05:22.953Z,15.54
2023-05-12T06:07:49.978Z,15.60
2023-05-12T06:10:16.817Z,15.67
2023-05-12T06:12:45.198Z,15.75
2023-05-12T06:15:12.250Z,15.81
2023-05-12T06:17:39.588Z,15.86
2023-05-12T06:20:07.468Z,15.87
2023-05-12T06:22:34.856Z,15.93
2023-05-12T06:25:02.058Z,16.00
2023-05-12T06:27:28.809Z,16.06
2023-05-12T06:29:55.793Z,16.11
2023-05-12T06:32:22.576Z,16.19
2023-05-12T06:34:49.782Z,16.23
2023-05-12T06:37:16.978Z,16.30
2023-05-12T06:39:43.823Z,16.36
2023-05-12T06:42:11.681Z,16.40
2023-05-12T06:44:42.505Z,16.45
2023-05-12T06:47:09.720Z,16.52
2023-05-12T06:49:38.108Z,16.60
2023-05-12T06:52:06.751Z,16.63
2023-05-12T06:54:33.806Z,16.66
2023-05-12T06:57:00.854Z,16.72
2023-05-12T06:59:27.678Z,16.79
2023-05-12T07:01:54.423Z,16.86
2023-05-12T07:04:21.756Z,16.88
2023-05-12T07:06:48.528Z,16.93
2023-05-12T07:09:15.320Z,16.98
2023-05-12T07:11:42.186Z,17.03
2023-05-12T07:14:08.931Z,17.09
2023-05-12T07:16:36.413Z,17.15
2023-05-12T07:19:03.332Z,17.20
2023-05-12T07:21:30.757Z,17.26
2023-05-12T07:23:57.674Z,17.32
2023-05-12T07:26:24.474Z,17.37
2023-05-12T07:28:51.378Z,17.41
2023-05-12T07:31:18.203Z,17.46
2023-05-12T07:33:45.012Z,17.50
2023-05-12T07:36:11.784Z,17.54
2023-05-12T07:38:38.560Z,17.54
2023-05-12T07:41:05.376Z,17.56
2023-05-12T07:43:32.127Z,17.59
2023-05-12T07:46:01.141Z,17.63
2023-05-12T07:48:28.030Z,17.66
2023-05-12T07:50:55.085Z,17.70
2023-05-12T07:53:21.882Z,17.75
2023-05-12T07:55:48.712Z,17.83
2023-05-12T07:58:15.631Z,17.87
2023-05-12T08:00:42.568Z,17.92
2023-05-12T08:03:09.458Z,17.99
2023-05-12T08:05:36.625Z,18.04
2023-05-12T08:08:03.498Z,18.13
2023-05-12T08:10:32.677Z,18.22
2023-05-12T08:12:59.414Z,18.33
2023-05-12T08:15:26.257Z,18.46
2023-05-12T08:17:53.104Z,18.55
2023-05-12T08:20:20.349Z,18.63
2023-05-12T08:22:47.943Z,18.74
2023-05-12T08:25:14.909Z,18.83
2023-05-12T08:27:42.032Z,18.93
2023-05-12T08:30:09.823Z,19.01
2023-05-12T08:32:36.889Z,19.11
2023-05-12T08:35:03.928Z,19.21
2023-05-12T08:37:33.029Z,19.33
2023-05-12T08:40:01.306Z,19.50
2023-05-12T08:42:37.366Z,19.67
2023-05-12T08:45:04.526Z,19.81
2023-05-12T08:47:33.285Z,19.92
2023-05-12T08:50:02.172Z,20.06
2023-05-12T08:52:33.438Z,20.22
2023-05-12T08:55:01.020Z,20.41
2023-05-12T08:57:29.858Z,20.52
2023-05-12T08:59:57.509Z,20.70
2023-05-12T09:02:24.688Z,21.00
2023-05-12T09:04:52.200Z,21.31
2023-05-12T09:07:19.805Z,21.56
2023-05-12T09:09:48.809Z,21.78
2023-05-12T09:12:17.011Z,21.95
2023-05-12T09:14:45.217Z,22.13
2023-05-12T09:17:12.764Z,22.45
2023-05-12T09:19:39.590Z,22.96
2023-05-12T09:22:06.400Z,23.52
2023-05-12T09:24:40.047Z,24.17
2023-05-12T09:27:07.316Z,24.78
2023-05-12T09:29:37.458Z,25.29
2023-05-12T09:32:12.162Z,25.89
2023-05-12T09:34:41.602Z,26.47
2023-05-12T09:37:08.651Z,26.92
2023-05-12T09:39:36.505Z,27.33
2023-05-12T09:42:03.456Z,27.65
2023-05-12T09:44:31.675Z,27.79
2023-05-12T09:47:07.169Z,28.19
2023-05-12T09:49:34.153Z,28.73
2023-05-12T09:52:01.314Z,29.27
2023-05-12T09:54:30.642Z,29.81
2023-05-12T09:57:02.496Z,30.28
2023-05-12T09:59:33.964Z,30.64
2023-05-12T10:02:01.681Z,30.80
2023-05-12T10:04:39.521Z,30.63
2023-05-12T10:07:08.567Z,30.13
2023-05-12T10:09:35.350Z,29.68
2023-05-12T10:12:03.172Z,29.59
2023-05-12T10:14:29.994Z,29.81
2023-05-12T10:16:56.859Z,30.21
2023-05-12T10:19:23.754Z,30.68
2023-05-12T10:21:50.536Z,31.23
2023-05-12T10:24:17.510Z,31.79
2023-05-12T10:26:44.854Z,32.15
2023-05-12T10:29:12.524Z,32.38
2023-05-12T10:31:39.332Z,32.54
2023-05-12T10:34:06.931Z,32.66
2023-05-12T10:36:47.517Z,32.53
2023-05-12T10:39:15.674Z,32.43
2023-05-12T10:41:42.913Z,32.36
2023-05-12T10:44:12.560Z,32.15
2023-05-12T10:46:39.373Z,31.63
2023-05-12T10:49:06.099Z,30.94
2023-05-12T10:51:34.478Z,30.33
2023-05-12T10:54:03.943Z,29.87
2023-05-12T10:56:32.005Z,29.41
2023-05-12T10:59:13.108Z,28.97
2023-05-12T11:01:41.672Z,28.50
2023-05-12T11:04:16.864Z,28.11
2023-05-12T11:06:45.042Z,27.82
2023-05-12T11:09:13.291Z,27.91
2023-05-12T11:11:40.685Z,28.36
2023-05-12T11:14:08.021Z,29.12
2023-05-12T11:16:34.845Z,29.99
2023-05-12T11:22:23.742Z,31.28
2023-05-12T11:24:52.172Z,31.90
2023-05-12T11:27:19.983Z,32.03
2023-05-12T11:29:58.572Z,31.79
2023-05-12T11:32:25.317Z,31.38
2023-05-12T11:34:52.384Z,30.96
2023-05-12T11:37:20.422Z,30.64
2023-05-12T11:39:47.464Z,30.34
2023-05-12T11:42:15.117Z,30.40
2023-05-12T11:44:47.805Z,30.81
2023-05-12T11:47:15.536Z,31.56
2023-05-12T11:49:49.996Z,32.29
2023-05-12T11:52:17.839Z,33.06
2023-05-12T11:54:50.185Z,33.48
2023-05-12T11:57:32.790Z,33.09
2023-05-12T12:00:00.900Z,32.28
2023-05-12T12:02:28.229Z,31.71
2023-05-12T12:04:55.353Z,31.18
2023-05-12T12:07:32.310Z,30.69
2023-05-12T12:10:10.130Z,29.97
2023-05-12T12:12:38.415Z,28.75
2023-05-12T12:15:05.926Z,27.75
2023-05-12T12:17:32.637Z,27.15
2023-05-12T12:19:59.506Z,26.94
2023-05-12T12:22:26.440Z,27.01
2023-05-12T12:24:53.171Z,27.33
2023-05-12T12:27:19.779Z,27.82
2023-05-12T12:29:46.824Z,28.33
2023-05-12T12:32:13.484Z,29.08
2023-05-12T12:34:41.166Z,30.11
2023-05-12T12:37:07.750Z,31.14
2023-05-12T12:39:35.419Z,31.95
2023-05-12T12:42:02.609Z,32.87
2023-05-12T12:44:29.384Z,33.69
2023-05-12T12:46:56.026Z,34.40
2023-05-12T12:49:24.078Z,34.79
2023-05-12T12:51:51.010Z,34.81
2023-05-12T12:54:17.951Z,34.51
2023-05-12T12:56:44.586Z,34.01
2023-05-12T12:59:11.343Z,33.44
2023-05-12T13:01:38.107Z,32.67
2023-05-12T13:04:05.248Z,31.85
2023-05-12T13:06:32.020Z,31.15
2023-05-12T13:08:59.419Z,30.52
2023-05-12T13:11:26.066Z,29.88
2023-05-12T13:13:52.877Z,29.27
2023-05-12T13:16:19.701Z,28.63
2023-05-12T13:18:46.818Z,28.01
2023-05-12T13:21:13.465Z,27.54
2023-05-12T13:23:42.253Z,27.16
2023-05-12T13:26:08.921Z,26.72
2023-05-12T13:28:36.881Z,26.30
2023-05-12T13:31:05.643Z,25.85
2023-05-12T13:33:33.029Z,25.46
2023-05-12T13:35:59.951Z,25.16
2023-05-12T13:38:26.601Z,24.89
2023-05-12T13:40:54.425Z,24.66
2023-05-12T13:43:21.568Z,24.52
2023-05-12T13:45:48.259Z,24.39
2023-05-12T13:48:15.228Z,24.24
2023-05-12T13:50:44.589Z,24.00
2023-05-12T13:53:12.390Z,23.77
2023-05-12T13:55:48.599Z,23.59
2023-05-12T13:58:15.463Z,23.46
2023-05-12T14:00:42.670Z,23.31
2023-05-12T14:03:09.465Z,23.23
2023-05-12T14:05:37.541Z,23.13
2023-05-12T14:08:04.461Z,23.04
2023-05-12T14:10:33.097Z,22.98
2023-05-12T14:12:59.878Z,22.90
2023-05-12T14:15:39.947Z,22.78
2023-05-12T14:18:14.272Z,22.64
2023-05-12T14:20:41.480Z,22.54
2023-05-12T14:23:07.960Z,22.49
2023-05-12T14:25:34.784Z,22.46
2023-05-12T14:28:02.012Z,22.44
2023-05-12T14:30:29.543Z,22.39
2023-05-12T14:32:56.766Z,22.30
2023-05-12T14:35:26.932Z,22.20
2023-05-12T14:37:54.397Z,22.12
2023-05-12T14:40:21.133Z,22.04
2023-05-12T14:42:47.988Z,21.97
2023-05-12T14:45:15.055Z,21.90
2023-05-12T14:47:42.125Z,21.84
2023-05-12T14:50:09.544Z,21.77
2023-05-12T14:52:39.294Z,21.68
2023-05-12T14:55:11.791Z,21.58
2023-05-12T14:57:40.040Z,21.51
2023-05-12T15:00:10.165Z,21.44
2023-05-12T15:02:38.404Z,21.39
2023-05-12T15:05:06.761Z,21.34
2023-05-12T15:07:33.760Z,21.28
2023-05-12T15:10:00.404Z,21.17
2023-05-12T15:12:27.418Z,21.08
2023-05-12T15:14:56.386Z,21.02
2023-05-12T15:17:23.204Z,21.00
2023-05-12T15:19:49.792Z,21.00
2023-05-12T15:22:16.330Z,21.00
2023-05-12T15:24:43.127Z,20.99
2023-05-12T15:27:09.650Z,20.98
2023-05-12T15:29:38.157Z,20.95
2023-05-12T15:32:05.730Z,20.91
2023-05-12T15:34:34.431Z,20.85
2023-05-12T15:37:01.300Z,20.80
2023-05-12T15:39:28.172Z,20.75
2023-05-12T15:41:54.773Z,20.69
2023-05-12T15:44:21.435Z,20.64
2023-05-12T15:46:48.107Z,20.61
2023-05-12T15:49:14.813Z,20.59
2023-05-12T15:51:41.926Z,20.54
2023-05-12T15:54:09.527Z,20.49
2023-05-12T15:56:36.854Z,20.43
2023-05-12T15:59:04.608Z,20.39
2023-05-12T16:01:31.602Z,20.38
2023-05-12T16:03:58.946Z,20.38
2023-05-12T16:06:25.679Z,20.38
2023-05-12T16:08:52.563Z,20.39
2023-05-12T16:11:19.174Z,20.41
2023-05-12T16:13:45.798Z,20.42
2023-05-12T16:16:12.685Z,20.38
2023-05-12T16:18:39.629Z,20.36
2023-05-12T16:21:06.624Z,20.35
2023-05-12T16:23:33.282Z,20.30
2023-05-12T16:25:59.887Z,20.22
2023-05-12T16:28:26.637Z,20.16
2023-05-12T16:30:53.276Z,20.11
2023-05-12T16:33:19.827Z,20.07
2023-05-12T16:35:46.601Z,20.02
2023-05-12T16:38:13.281Z,19.96
2023-05-12T16:40:39.910Z,19.91
2023-05-12T16:43:06.481Z,19.84
2023-05-12T16:45:33.415Z,19.78
2023-05-12T16:48:01.117Z,19.73
2023-05-12T16:50:27.758Z,19.69
2023-05-12T16:52:54.252Z,19.63
2023-05-12T16:55:21.261Z,19.58
2023-05-12T16:57:48.491Z,19.52
2023-05-12T17:00:15.786Z,19.45
2023-05-12T17:02:42.935Z,19.38
2023-05-12T17:05:09.549Z,19.31
2023-05-12T17:07:37.478Z,19.23
2023-05-12T17:10:04.523Z,19.15
2023-05-12T17:12:31.766Z,19.08
2023-05-12T17:15:06.810Z,19.00
2023-05-12T17:17:35.248Z,18.89
2023-05-12T17:20:02.388Z,18.77
2023-05-12T17:22:31.484Z,18.66
2023-05-12T17:24:58.360Z,18.57
2023-05-12T17:27:25.906Z,18.48
2023-05-12T17:29:52.987Z,18.38
2023-05-12T17:32:20.024Z,18.28
2023-05-12T17:34:49.631Z,18.18
2023-05-12T17:37:16.921Z,18.11
2023-05-12T17:39:43.870Z,18.05
2023-05-12T17:42:10.505Z,18.01
2023-05-12T17:44:37.332Z,17.97
2023-05-12T17:47:04.400Z,17.94
2023-05-12T17:49:31.145Z,17.89
2023-05-12T17:51:57.917Z,17.84
2023-05-12T17:54:27.005Z,17.78
2023-05-12T17:56:53.875Z,17.76
2023-05-12T17:59:20.458Z,17.72
2023-05-12T18:01:47.362Z,17.68
2023-05-12T18:04:14.733Z,17.63
2023-05-12T18:06:41.387Z,17.54
2023-05-12T18:09:08.120Z,17.45
2023-05-12T18:11:34.961Z,17.38
2023-05-12T18:14:05.041Z,17.30
2023-05-12T18:16:32.771Z,17.21
2023-05-12T18:19:01.856Z,17.14
2023-05-12T18:21:28.714Z,17.07
2023-05-12T18:23:56.063Z,17.01
2023-05-12T18:26:23.579Z,16.95
2023-05-12T18:28:50.327Z,16.88
2023-05-12T18:31:19.194Z,16.82
2023-05-12T18:33:47.864Z,16.77
2023-05-12T18:36:15.739Z,16.70
2023-05-12T18:38:42.609Z,16.65
2023-05-12T18:41:10.741Z,16.61
2023-05-12T18:43:37.723Z,16.57
2023-05-12T18:46:05.537Z,16.54
2023-05-12T18:48:33.433Z,16.49
2023-05-12T18:51:00.696Z,16.45
2023-05-12T18:53:29.748Z,16.44
2023-05-12T18:55:56.660Z,16.42
2023-05-12T18:58:23.322Z,16.37
2023-05-12T19:00:50.199Z,16.35
2023-05-12T19:03:16.981Z,16.34
2023-05-12T19:05:45.636Z,16.35
2023-05-12T19:08:13.008Z,16.36
2023-05-12T19:10:40.347Z,16.39
2023-05-12T19:13:08.106Z,16.43
2023-05-12T19:15:35.649Z,16.49
2023-05-12T19:18:02.955Z,16.54
2023-05-12T19:20:30.549Z,16.59
2023-05-12T19:22:59.071Z,16.64
2023-05-12T19:25:25.963Z,16.69
2023-05-12T19:27:53.391Z,16.74
2023-05-12T19:30:20.609Z,16.76
2023-05-12T19:32:47.480Z,16.80
2023-05-12T19:35:16.040Z,16.84
2023-05-12T19:37:43.191Z,16.86
2023-05-12T19:40:10.176Z,16.84
2023-05-12T19:42:38.045Z,16.79
2023-05-12T19:45:05.699Z,16.70
2023-05-12T19:47:33.694Z,16.66
2023-05-12T19:50:00.486Z,16.62
2023-05-12T19:52:29.994Z,16.56
2023-05-12T19:54:56.693Z,16.50
2023-05-12T19:57:23.320Z,16.44
2023-05-12T19:59:50.270Z,16.39
2023-05-12T20:02:17.104Z,16.33
2023-05-12T20:04:43.950Z,16.26
2023-05-12T20:07:10.621Z,16.20
2023-05-12T20:09:37.299Z,16.13
2023-05-12T20:12:07.618Z,16.07
2023-05-12T20:14:35.584Z,16.01
2023-05-12T20:17:05.088Z,15.93
2023-05-12T20:19:32.787Z,15.87
2023-05-12T20:21:59.742Z,15.81
2023-05-12T20:24:26.674Z,15.76
2023-05-12T20:26:53.274Z,15.71
2023-05-12T20:29:22.667Z,15.67
2023-05-12T20:31:50.214Z,15.59
2023-05-12T20:34:17.337Z,15.51
2023-05-12T20:36:44.185Z,15.44
2023-05-12T20:39:11.344Z,15.38
2023-05-12T20:41:38.405Z,15.33
2023-05-12T20:44:05.433Z,15.28
2023-05-12T20:46:34.447Z,15.21
2023-05-12T20:49:02.725Z,15.15
2023-05-12T20:51:29.331Z,15.08
2023-05-12T20:53:55.992Z,15.02
2023-05-12T20:56:22.634Z,14.93
2023-05-12T20:58:49.684Z,14.84
2023-05-12T21:01:16.612Z,14.76
2023-05-12T21:03:43.241Z,14.69
2023-05-12T21:06:11.504Z,14.57
2023-05-12T21:08:38.776Z,14.50
2023-05-12T21:11:18.087Z,14.42
2023-05-12T21:13:46.375Z,14.31
2023-05-12T21:16:14.418Z,14.27
2023-05-12T21:18:42.288Z,14.23
2023-05-12T21:21:09.026Z,14.18
2023-05-12T21:23:36.853Z,14.14
2023-05-12T21:26:04.382Z,14.10
2023-05-12T21:28:31.106Z,14.06
2023-05-12T21:30:57.684Z,14.03
2023-05-12T21:33:24.383Z,14.01
2023-05-12T21:35:51.043Z,13.97
2023-05-12T21:38:18.804Z,13.94
2023-05-12T21:40:51.207Z,13.92
2023-05-12T21:43:17.785Z,13.90
2023-05-12T21:45:44.340Z,13.85
2023-05-12T21:48:11.826Z,13.82
2023-05-12T21:50:38.570Z,13.78
2023-05-12T21:53:05.205Z,13.74
2023-05-12T21:55:32.630Z,13.70
2023-05-12T21:57:59.412Z,13.66
2023-05-12T22:00:26.288Z,13.59
2023-05-12T22:02:53.008Z,13.54
2023-05-12T22:05:19.666Z,13.47
2023-05-12T22:07:46.371Z,13.40
2023-05-12T22:10:13.105Z,13.33
2023-05-12T22:12:40.251Z,13.28
2023-05-12T22:15:07.268Z,13.24
2023-05-12T22:17:34.103Z,13.21
2023-05-12T22:20:00.888Z,13.17
2023-05-12T22:22:27.430Z,13.12
2023-05-12T22:24:54.043Z,13.10
2023-05-12T22:27:21.793Z,13.06
2023-05-12T22:29:49.055Z,13.03
2023-05-12T22:32:15.681Z,13.01
2023-05-12T22:34:42.241Z,12.99
2023-05-12T22:37:08.955Z,12.98
2023-05-12T22:39:35.660Z,12.97
2023-05-12T22:42:02.676Z,12.95
2023-05-12T22:44:30.262Z,12.93
2023-05-12T22:46:57.264Z,12.91
2023-05-12T22:49:23.982Z,12.86
2023-05-12T22:51:50.674Z,12.83
2023-05-12T22:54:17.586Z,12.81
2023-05-12T22:56:44.231Z,12.79
2023-05-12T22:59:10.851Z,12.76
2023-05-12T23:01:37.456Z,12.73
2023-05-12T23:04:04.320Z,12.68
2023-05-12T23:06:31.947Z,12.62
2023-05-12T23:08:58.577Z,12.58
2023-05-12T23:11:25.204Z,12.54
2023-05-12T23:13:52.014Z,12.51
2023-05-12T23:16:18.789Z,12.46
2023-05-12T23:18:45.569Z,12.38
2023-05-12T23:21:12.224Z,12.30
2023-05-12T23:23:38.795Z,12.26
2023-05-12T23:26:05.404Z,12.21
2023-05-12T23:28:32.726Z,12.13
2023-05-12T23:30:59.345Z,12.07
2023-05-12T23:33:26.499Z,12.04
2023-05-12T23:35:53.086Z,12.04
2023-05-12T23:39:41.009Z,12.06
2023-05-12T23:42:07.854Z,12.05
2023-05-12T23:44:34.564Z,12.04
2023-05-12T23:47:01.451Z,12.03
2023-05-12T23:49:28.252Z,12.01
2023-05-12T23:51:55.070Z,12.01
2023-05-12T23:54:21.904Z,11.96
2023-05-12T23:56:48.632Z,11.91
2023-05-12T23:59:15.451Z,11.85
